Time;durP1;ratioP1;P1;durP2;ratioP2;P2;SDS_P1;SDS_P2;PMS_P1;PMS_P2;Temp;Humidity;BMP_temperature;BMP_pressure;BME280_temperature;BME280_humidity;BME280_pressure;Samples;Min_cycle;Max_cycle;Signal;HPM_P1;HPM_P2
2021/06/30 00:00:42;;;;;;;38.42;5.80;;;;;;;18.56;85.96;100455.09;1719771;83;21505;-39
2021/06/30 00:03:09;;;;;;;89.95;8.28;;;;;;;18.48;86.09;100462.04;1693386;83;21471;-39
2021/06/30 00:05:36;;;;;;;64.70;6.75;;;;;;;18.40;86.45;100461.11;1720102;83;21442;-39
2021/06/30 00:08:06;;;;;;;81.95;8.00;;;;;;;18.36;86.76;100459.14;1720014;83;20924;-39
2021/06/30 00:10:34;;;;;;;59.30;7.85;;;;;;;18.34;86.85;100459.68;1719892;83;21227;-39
2021/06/30 00:13:01;;;;;;;57.73;8.58;;;;;;;18.31;86.95;100462.42;1719891;83;21023;-39
2021/06/30 00:15:30;;;;;;;96.85;11.88;;;;;;;18.27;87.15;100457.44;1692985;83;20865;-38
2021/06/30 00:17:57;;;;;;;74.82;8.85;;;;;;;18.21;87.43;100458.59;1719969;83;21463;-39
2021/06/30 00:20:24;;;;;;;68.78;8.03;;;;;;;18.16;87.74;100455.36;1720089;83;20976;-39
2021/06/30 00:22:52;;;;;;;57.67;8.63;;;;;;;18.09;88.21;100450.89;1720037;83;20928;-38
2021/06/30 00:25:20;;;;;;;58.28;8.40;;;;;;;18.04;88.55;100458.13;1719994;83;20896;-39
2021/06/30 00:27:49;;;;;;;91.42;10.70;;;;;;;17.96;88.64;100461.09;1719976;83;20928;-39
2021/06/30 00:30:18;;;;;;;91.67;10.98;;;;;;;17.91;89.14;100456.55;1719905;83;20948;-39
2021/06/30 00:32:45;;;;;;;85.10;8.98;;;;;;;17.87;89.43;100458.46;1720188;83;20972;-38
2021/06/30 00:35:13;;;;;;;68.17;8.23;;;;;;;17.84;89.47;100462.55;1720369;83;21063;-39
2021/06/30 00:37:40;;;;;;;60.35;8.33;;;;;;;17.79;89.65;100463.23;1706554;83;21458;-39
2021/06/30 00:40:08;;;;;;;59.98;8.50;;;;;;;17.75;89.85;100456.45;1706622;84;21323;-39
2021/06/30 00:42:35;;;;;;;54.35;9.08;;;;;;;17.71;90.01;100460.98;1706749;84;20988;-39
2021/06/30 00:45:04;;;;;;;50.33;8.63;;;;;;;17.67;90.09;100465.50;1706579;84;20948;-39
2021/06/30 00:47:32;;;;;;;45.98;7.12;;;;;;;17.63;90.27;100462.66;1706754;84;21118;-39
2021/06/30 00:50:00;;;;;;;51.33;6.72;;;;;;;17.60;90.38;100461.50;1706459;82;20933;-39
2021/06/30 00:52:28;;;;;;;48.05;6.87;;;;;;;17.57;90.61;100464.27;1706584;84;20913;-39
2021/06/30 00:54:55;;;;;;;35.38;6.92;;;;;;;17.57;90.74;100468.67;1706295;84;21430;-39
2021/06/30 00:57:22;;;;;;;17.70;6.05;;;;;;;17.58;90.83;100466.44;1706805;83;20991;-39
2021/06/30 00:59:50;;;;;;;40.25;5.87;;;;;;;17.60;90.93;100460.19;1706528;84;21137;-39
2021/06/30 01:02:16;;;;;;;65.15;7.15;;;;;;;17.65;90.84;100459.50;1706386;84;20893;-39
2021/06/30 01:04:43;;;;;;;77.10;8.43;;;;;;;17.66;90.71;100465.59;1706536;83;20981;-39
2021/06/30 01:07:11;;;;;;;67.75;8.63;;;;;;;17.67;90.69;100470.73;1706540;84;21032;-39
2021/06/30 01:09:39;;;;;;;52.35;7.80;;;;;;;17.67;90.64;100477.77;1706555;84;21369;-40
2021/06/30 01:12:07;;;;;;;65.83;8.20;;;;;;;17.64;90.63;100468.27;1706587;84;21759;-39
2021/06/30 01:14:36;;;;;;;54.15;7.87;;;;;;;17.64;90.78;100476.60;1686544;84;20968;-39
2021/06/30 01:17:05;;;;;;;45.25;6.67;;;;;;;17.61;90.68;100477.59;1706375;83;20992;-39
2021/06/30 01:19:34;;;;;;;50.17;8.10;;;;;;;17.57;90.79;100474.73;1706509;82;21040;-39
2021/06/30 01:22:01;;;;;;;46.77;6.67;;;;;;;17.53;90.81;100474.02;1686583;84;21410;-39
2021/06/30 01:24:29;;;;;;;54.53;7.50;;;;;;;17.47;90.87;100471.70;1706514;84;21621;-39
2021/06/30 01:26:55;;;;;;;45.65;7.70;;;;;;;17.41;90.96;100474.61;1686483;84;21376;-39
2021/06/30 01:29:22;;;;;;;50.35;7.67;;;;;;;17.34;91.03;100470.12;1706452;84;21039;-39
2021/06/30 01:31:50;;;;;;;54.63;8.03;;;;;;;17.32;91.36;100464.59;1706505;84;20893;-39
2021/06/30 01:34:16;;;;;;;39.65;7.00;;;;;;;17.27;91.52;100466.55;1706455;83;20984;-39
2021/06/30 01:36:52;;;;;;;41.63;5.53;;;;;;;17.21;91.66;100468.53;1706579;83;21096;-40
2021/06/30 01:39:21;;;;;;;27.48;5.10;;;;;;;17.17;91.82;100470.91;1680842;84;20952;-39
2021/06/30 01:41:48;;;;;;;29.45;5.40;;;;;;;17.13;91.94;100460.64;1706558;84;20941;-39
2021/06/30 01:44:15;;;;;;;21.95;5.33;;;;;;;17.09;92.28;100463.87;1706394;84;20909;-39
2021/06/30 01:46:43;;;;;;;18.00;4.70;;;;;;;17.06;92.53;100464.02;1706447;83;21015;-39
2021/06/30 01:49:10;;;;;;;20.50;4.37;;;;;;;17.05;92.76;100471.00;1706646;84;21169;-39
2021/06/30 01:51:36;;;;;;;13.83;4.28;;;;;;;17.04;92.98;100466.69;1686078;84;20975;-39
2021/06/30 01:54:04;;;;;;;16.32;4.35;;;;;;;17.08;93.27;100467.41;1706807;83;21033;-39
2021/06/30 01:56:33;;;;;;;10.13;3.58;;;;;;;17.09;93.37;100471.72;1706375;83;21025;-39
2021/06/30 01:59:06;;;;;;;11.80;4.00;;;;;;;17.08;93.46;100468.72;1706656;83;21007;-39
2021/06/30 02:01:33;;;;;;;16.67;3.70;;;;;;;17.12;93.63;100475.50;1706338;84;21970;-40
2021/06/30 02:03:59;;;;;;;7.80;3.60;;;;;;;17.17;93.88;100470.03;1686303;84;20992;-40
2021/06/30 02:06:28;;;;;;;12.85;3.70;;;;;;;17.21;94.09;100465.91;1706438;84;20961;-39
2021/06/30 02:08:58;;;;;;;16.17;3.83;;;;;;;17.28;94.23;100469.10;1706701;84;20985;-39
2021/06/30 02:11:26;;;;;;;4.92;3.37;;;;;;;17.36;94.27;100471.37;1706491;84;20917;-40
2021/06/30 02:13:53;;;;;;;8.08;3.87;;;;;;;17.42;94.29;100476.30;1706410;83;22057;-39
2021/06/30 02:16:21;;;;;;;9.95;3.70;;;;;;;17.51;94.43;100485.02;1706427;83;21033;-39
2021/06/30 02:18:49;;;;;;;15.38;3.52;;;;;;;17.60;94.39;100479.81;1706856;84;20984;-40
2021/06/30 02:21:16;;;;;;;10.30;4.10;;;;;;;17.67;94.28;100481.69;1706398;83;21226;-39
2021/06/30 02:23:42;;;;;;;5.72;3.55;;;;;;;17.72;94.21;100487.55;1706521;83;20973;-40
2021/06/30 02:26:09;;;;;;;18.60;4.15;;;;;;;17.75;94.05;100483.47;1706477;84;21127;-40
2021/06/30 02:28:35;;;;;;;32.28;4.45;;;;;;;17.79;94.02;100481.08;1706221;83;21039;-40
2021/06/30 02:31:02;;;;;;;20.72;4.70;;;;;;;17.84;94.05;100478.73;1686338;84;21031;-39
2021/06/30 02:33:30;;;;;;;21.82;4.22;;;;;;;17.88;94.06;100479.80;1706438;83;21523;-40
2021/06/30 02:35:57;;;;;;;20.00;4.37;;;;;;;17.94;93.94;100481.27;1685900;83;20925;-40
2021/06/30 02:38:24;;;;;;;16.45;3.87;;;;;;;18.01;93.65;100480.07;1706527;83;21130;-39
2021/06/30 02:40:51;;;;;;;31.27;4.47;;;;;;;18.09;93.28;100484.48;1706384;83;20960;-40
2021/06/30 02:43:19;;;;;;;15.58;4.62;;;;;;;18.21;92.67;100486.09;1706684;84;21001;-39
2021/06/30 02:45:46;;;;;;;28.83;5.97;;;;;;;18.32;92.11;100479.88;1706444;82;20965;-40
2021/06/30 02:48:13;;;;;;;36.73;6.25;;;;;;;18.42;91.54;100482.84;1706459;84;20881;-39
2021/06/30 02:50:40;;;;;;;37.55;6.30;;;;;;;18.53;91.01;100491.02;1706423;84;21434;-40
2021/06/30 02:53:07;;;;;;;36.85;5.80;;;;;;;18.65;90.48;100496.09;1706356;84;20948;-39
2021/06/30 02:55:34;;;;;;;22.73;5.08;;;;;;;18.74;89.74;100493.47;1706619;83;20956;-40
2021/06/30 02:58:00;;;;;;;13.13;4.83;;;;;;;18.83;88.89;100489.52;1706267;83;20992;-39
2021/06/30 03:00:27;;;;;;;35.58;5.45;;;;;;;18.92;87.60;100498.20;1706488;84;20885;-40
2021/06/30 03:02:54;;;;;;;32.03;5.17;;;;;;;19.03;86.63;100497.66;1706368;83;21816;-39
2021/06/30 03:05:21;;;;;;;48.70;7.15;;;;;;;19.14;85.67;100503.65;1706616;84;21511;-40
2021/06/30 03:07:50;;;;;;;38.98;5.65;;;;;;;19.23;85.26;100503.14;1706677;82;20972;-39
2021/06/30 03:10:16;;;;;;;35.40;5.97;;;;;;;19.31;84.70;100511.05;1706715;83;21483;-40
2021/06/30 03:12:44;;;;;;;65.90;7.33;;;;;;;19.37;84.01;100506.80;1706595;84;20905;-39
2021/06/30 03:15:13;;;;;;;48.55;8.28;;;;;;;19.42;83.39;100509.16;1706414;84;20936;-39
2021/06/30 03:17:40;;;;;;;53.35;7.15;;;;;;;19.47;82.63;100509.30;1706583;84;21719;-39
2021/06/30 03:20:09;;;;;;;65.35;7.55;;;;;;;19.51;82.27;100509.98;1706611;84;20940;-39
2021/06/30 03:22:38;;;;;;;55.67;7.90;;;;;;;19.55;81.94;100511.50;1706530;84;21578;-39
2021/06/30 03:25:10;;;;;;;117.57;12.68;;;;;;;19.58;81.68;100514.41;1706139;83;21522;-39
2021/06/30 03:27:37;;;;;;;97.97;10.63;;;;;;;19.62;81.61;100512.84;1686790;84;21108;-38
2021/06/30 03:30:08;;;;;;;58.52;7.40;;;;;;;19.68;81.22;100512.98;1706303;84;20988;-39
2021/06/30 03:32:34;;;;;;;57.40;7.55;;;;;;;19.74;81.00;100513.94;1706660;83;20913;-39
2021/06/30 03:35:02;;;;;;;94.05;9.73;;;;;;;19.81;80.65;100516.59;1706374;83;20940;-39
2021/06/30 03:37:28;;;;;;;80.70;8.95;;;;;;;19.89;80.35;100507.45;1716716;83;20896;-39
2021/06/30 03:39:55;;;;;;;94.03;9.15;;;;;;;19.97;80.15;100510.51;1727376;82;21754;-39
2021/06/30 03:42:21;;;;;;;95.62;8.70;;;;;;;20.07;79.84;100513.46;1727483;83;21532;-40
2021/06/30 03:44:48;;;;;;;43.58;5.92;;;;;;;20.22;79.32;100514.35;1727655;83;20896;-39
2021/06/30 03:47:16;;;;;;;83.35;7.45;;;;;;;20.45;79.02;100509.05;1727361;81;20888;-39
2021/06/30 03:49:43;;;;;;;67.47;7.12;;;;;;;20.73;78.40;100515.77;1727537;81;20896;-39
2021/06/30 03:52:11;;;;;;;61.45;7.00;;;;;;;21.01;77.27;100517.60;1727401;83;20983;-39
2021/06/30 03:54:37;;;;;;;25.95;5.42;;;;;;;21.29;76.34;100520.28;1727391;83;20920;-39
2021/06/30 03:57:04;;;;;;;32.95;4.85;;;;;;;21.57;75.21;100521.17;1727374;83;20991;-39
2021/06/30 03:59:31;;;;;;;12.53;3.60;;;;;;;21.77;74.46;100515.50;1700981;81;21536;-39
2021/06/30 04:01:58;;;;;;;17.50;3.37;;;;;;;21.99;73.29;100514.11;1727514;83;20964;-39
2021/06/30 04:04:25;;;;;;;24.85;5.17;;;;;;;22.10;71.35;100514.72;1727597;83;21167;-39
2021/06/30 04:06:53;;;;;;;21.37;4.12;;;;;;;22.20;70.94;100512.32;1727547;83;20952;-39
2021/06/30 04:09:20;;;;;;;32.20;4.70;;;;;;;22.39;70.82;100504.87;1727695;81;21469;-39
2021/06/30 04:11:46;;;;;;;44.67;5.58;;;;;;;22.59;69.99;100501.36;1727648;83;21449;-39
2021/06/30 04:14:13;;;;;;;46.48;5.00;;;;;;;22.80;70.08;100503.47;1727676;83;21493;-39
2021/06/30 04:16:39;;;;;;;28.80;4.72;;;;;;;22.99;68.96;100506.15;1727826;83;21790;-39
2021/06/30 04:19:05;;;;;;;14.18;4.33;;;;;;;23.19;68.54;100505.59;1727554;83;21462;-39
2021/06/30 04:21:32;;;;;;;20.57;4.05;;;;;;;23.43;67.83;100504.82;1727877;83;21018;-40
2021/06/30 04:23:59;;;;;;;10.90;3.35;;;;;;;23.60;66.78;100514.16;1727570;81;20940;-40
2021/06/30 04:26:27;;;;;;;23.73;4.15;;;;;;;23.78;66.02;100510.64;1727629;83;20829;-40
2021/06/30 04:28:54;;;;;;;15.75;3.50;;;;;;;23.81;65.50;100503.80;1727820;81;21754;-39
2021/06/30 04:31:21;;;;;;;46.90;6.35;;;;;;;23.89;65.01;100505.06;1727958;83;21596;-39
2021/06/30 04:33:47;;;;;;;34.38;5.08;;;;;;;24.00;65.18;100508.20;1727782;81;21374;-40
2021/06/30 04:36:15;;;;;;;10.10;3.95;;;;;;;24.17;64.91;100505.67;1727565;83;21727;-40
2021/06/30 04:38:42;;;;;;;5.72;3.12;;;;;;;24.37;64.99;100504.15;1727568;83;21034;-39
2021/06/30 04:41:10;;;;;;;3.92;2.70;;;;;;;24.63;64.51;100503.48;1727558;81;21164;-40
2021/06/30 04:43:39;;;;;;;3.50;2.75;;;;;;;24.86;64.21;100506.64;1727597;83;20892;-40
2021/06/30 04:46:07;;;;;;;7.17;3.20;;;;;;;25.02;62.69;100503.16;1727634;83;20908;-40
2021/06/30 04:48:34;;;;;;;5.10;3.00;;;;;;;25.15;61.83;100496.88;1727479;83;21035;-40
2021/06/30 04:51:02;;;;;;;6.28;3.30;;;;;;;25.30;62.33;100494.81;1727422;83;20955;-40
2021/06/30 04:53:29;;;;;;;6.08;3.10;;;;;;;25.49;61.85;100496.83;1727614;83;21195;-39
2021/06/30 04:55:56;;;;;;;4.12;3.20;;;;;;;25.69;61.15;100497.87;1727469;81;20932;-40
2021/06/30 04:58:25;;;;;;;7.55;3.27;;;;;;;25.74;59.37;100490.85;1727494;81;20899;-40
2021/06/30 05:00:55;;;;;;;4.42;2.62;;;;;;;25.63;59.71;100495.70;1727498;83;21577;-40
2021/06/30 05:03:26;;;;;;;5.00;3.60;;;;;;;25.53;61.15;100492.99;1727734;83;21516;-40
2021/06/30 05:05:51;;;;;;;7.75;3.87;;;;;;;25.63;61.48;100494.37;1727281;83;21055;-40
2021/06/30 05:08:17;;;;;;;4.50;3.40;;;;;;;25.77;61.06;100487.98;1727800;82;20845;-40
2021/06/30 05:10:44;;;;;;;3.70;3.40;;;;;;;25.79;60.09;100492.66;1700563;83;21019;-40
2021/06/30 05:13:11;;;;;;;3.02;2.80;;;;;;;25.66;60.20;100494.98;1727465;83;21008;-41
2021/06/30 05:15:37;;;;;;;4.87;3.02;;;;;;;25.66;60.14;100497.63;1727538;82;21038;-41
2021/06/30 05:18:04;;;;;;;18.32;3.65;;;;;;;25.52;60.33;100496.11;1727575;83;21088;-41
2021/06/30 05:20:30;;;;;;;12.25;2.70;;;;;;;25.51;60.19;100502.38;1727573;83;20979;-41
2021/06/30 05:22:57;;;;;;;11.53;2.87;;;;;;;25.54;60.45;100498.15;1727503;83;20964;-42
2021/06/30 05:25:23;;;;;;;4.50;2.95;;;;;;;25.77;60.75;100508.68;1727800;83;20932;-41
2021/06/30 05:27:50;;;;;;;5.42;2.98;;;;;;;25.92;59.46;100507.07;1727566;83;20959;-41
2021/06/30 05:30:17;;;;;;;4.60;2.50;;;;;;;25.92;59.35;100509.72;1727602;83;21080;-41
2021/06/30 05:32:43;;;;;;;2.50;2.30;;;;;;;25.87;59.42;100514.53;1727563;83;20908;-41
2021/06/30 05:35:11;;;;;;;3.30;2.55;;;;;;;25.72;58.71;100518.83;1727753;83;20892;-41
2021/06/30 05:37:38;;;;;;;3.58;2.30;;;;;;;25.58;59.58;100524.39;1720893;83;21498;-41
2021/06/30 05:40:07;;;;;;;4.87;2.80;;;;;;;25.54;60.04;100528.63;1706578;84;21074;-41
2021/06/30 05:42:34;;;;;;;4.00;2.35;;;;;;;25.50;59.20;100527.19;1706505;84;21131;-41
2021/06/30 05:45:00;;;;;;;2.65;2.17;;;;;;;25.54;60.34;100530.45;1706482;84;21067;-42
2021/06/30 05:47:27;;;;;;;7.87;2.77;;;;;;;25.73;59.89;100526.27;1686010;84;21527;-41
2021/06/30 05:49:54;;;;;;;5.92;2.60;;;;;;;25.87;59.47;100525.14;1706802;84;21466;-41
2021/06/30 05:52:20;;;;;;;3.00;2.50;;;;;;;26.00;59.65;100525.82;1706448;84;21418;-42
2021/06/30 05:54:47;;;;;;;4.00;2.70;;;;;;;26.11;58.70;100526.26;1706663;83;21762;-41
2021/06/30 05:57:13;;;;;;;14.23;2.60;;;;;;;26.30;58.62;100524.25;1706209;84;21510;-41
2021/06/30 05:59:40;;;;;;;7.08;2.67;;;;;;;26.43;57.74;100525.89;1706494;84;21547;-41
2021/06/30 06:02:07;;;;;;;15.20;3.60;;;;;;;26.48;57.31;100519.70;1706498;83;20905;-41
2021/06/30 06:04:33;;;;;;;3.37;2.80;;;;;;;26.45;57.15;100518.13;1706798;84;21008;-41
2021/06/30 06:07:00;;;;;;;5.45;2.70;;;;;;;26.47;56.63;100524.14;1706432;84;21043;-41
2021/06/30 06:09:26;;;;;;;3.17;2.50;;;;;;;26.31;56.27;100521.13;1706422;83;20980;-41
2021/06/30 06:11:54;;;;;;;5.90;1.92;;;;;;;26.14;53.57;100525.14;1706377;83;20940;-41
2021/06/30 06:14:20;;;;;;;5.12;2.60;;;;;;;26.13;56.82;100528.77;1706855;83;20921;-42
2021/06/30 06:16:49;;;;;;;7.15;2.35;;;;;;;26.31;54.55;100525.11;1706422;82;20980;-39
2021/06/30 06:19:15;;;;;;;24.98;3.15;;;;;;;26.31;53.38;100523.28;1706500;82;21138;-39
2021/06/30 06:21:42;;;;;;;18.57;3.02;;;;;;;26.38;52.34;100523.11;1706370;84;20941;-41
2021/06/30 06:24:09;;;;;;;20.23;3.55;;;;;;;26.58;53.32;100521.08;1706548;84;20865;-40
2021/06/30 06:26:35;;;;;;;25.25;3.30;;;;;;;26.64;52.89;100525.36;1706476;84;20997;-41
2021/06/30 06:29:03;;;;;;;28.07;2.92;;;;;;;26.74;53.64;100530.72;1706838;83;20984;-40
2021/06/30 06:31:31;;;;;;;12.40;2.02;;;;;;;26.89;51.57;100532.56;1706407;82;21088;-41
2021/06/30 06:33:57;;;;;;;1.87;1.60;;;;;;;26.94;50.56;100538.34;1706436;84;20940;-41
2021/06/30 06:36:24;;;;;;;59.15;3.02;;;;;;;26.73;49.96;100540.16;1706613;82;20996;-41
2021/06/30 06:38:51;;;;;;;33.80;2.87;;;;;;;26.63;47.77;100535.61;1686103;84;20870;-41
2021/06/30 06:41:18;;;;;;;47.10;3.90;;;;;;;26.62;47.49;100537.91;1706476;84;20988;-40
2021/06/30 06:43:45;;;;;;;30.88;3.25;;;;;;;26.62;49.58;100539.24;1706421;83;21112;-41
2021/06/30 06:46:12;;;;;;;33.45;3.90;;;;;;;26.78;47.62;100543.25;1706555;84;20916;-40
2021/06/30 06:48:38;;;;;;;26.60;3.30;;;;;;;26.70;47.79;100540.42;1706502;84;20989;-40
2021/06/30 06:51:05;;;;;;;37.60;3.22;;;;;;;26.61;47.86;100544.20;1706449;83;20996;-40
2021/06/30 06:53:31;;;;;;;23.65;3.20;;;;;;;26.57;48.03;100538.80;1706513;84;20921;-41
2021/06/30 06:56:01;;;;;;;7.47;2.30;;;;;;;26.57;48.02;100540.12;1706420;84;21141;-41
2021/06/30 06:58:26;;;;;;;2.83;2.30;;;;;;;26.56;47.92;100545.58;1706327;83;20937;-41
2021/06/30 07:00:54;;;;;;;34.15;3.17;;;;;;;26.54;48.42;100542.58;1706611;82;21569;-40
2021/06/30 07:03:20;;;;;;;17.20;2.62;;;;;;;26.57;49.38;100546.77;1706563;83;21436;-40
2021/06/30 07:05:47;;;;;;;18.37;3.35;;;;;;;26.64;48.33;100550.56;1706496;83;21549;-40
2021/06/30 07:08:13;;;;;;;32.10;2.77;;;;;;;26.63;48.69;100546.23;1706306;83;21541;-40
2021/06/30 07:10:39;;;;;;;17.62;2.47;;;;;;;26.63;48.70;100551.54;1686112;84;20980;-40
2021/06/30 07:13:06;;;;;;;10.48;2.52;;;;;;;26.58;49.53;100551.09;1706342;83;20968;-40
2021/06/30 07:15:32;;;;;;;6.37;1.85;;;;;;;26.59;47.64;100547.47;1706410;84;20980;-42
2021/06/30 07:17:59;;;;;;;28.95;3.05;;;;;;;26.57;48.40;100546.77;1706567;82;20877;-41
2021/06/30 07:20:25;;;;;;;31.25;3.00;;;;;;;26.57;49.48;100558.70;1706400;82;21145;-41
2021/06/30 07:22:52;;;;;;;3.62;2.33;;;;;;;26.79;51.11;100551.56;1706238;83;20991;-41
2021/06/30 07:25:19;;;;;;;4.60;1.77;;;;;;;27.03;46.85;100553.10;1706372;83;21459;-41
2021/06/30 07:27:47;;;;;;;3.75;2.37;;;;;;;26.98;46.11;100555.33;1686047;84;20913;-41
2021/06/30 07:30:15;;;;;;;1.77;1.57;;;;;;;26.85;45.89;100564.34;1706502;84;20976;-41
2021/06/30 07:32:41;;;;;;;64.40;4.08;;;;;;;26.83;46.74;100560.47;1706496;83;21769;-41
2021/06/30 07:35:09;;;;;;;63.17;3.70;;;;;;;26.92;46.74;100556.22;1706334;82;21600;-41
2021/06/30 07:37:35;;;;;;;44.25;3.77;;;;;;;26.99;46.02;100557.00;1706409;84;21511;-41
2021/06/30 07:40:03;;;;;;;4.80;2.08;;;;;;;26.96;45.95;100550.13;1706806;83;21555;-41
2021/06/30 07:42:30;;;;;;;24.72;2.60;;;;;;;26.98;45.00;100546.03;1706332;84;20944;-41
2021/06/30 07:44:58;;;;;;;23.73;2.37;;;;;;;27.05;47.65;100540.53;1706462;84;21117;-40
2021/06/30 07:47:24;;;;;;;7.12;1.70;;;;;;;27.36;45.89;100546.65;1706431;82;20940;-40
2021/06/30 07:49:50;;;;;;;7.58;1.67;;;;;;;27.50;45.18;100538.78;1706606;83;20941;-41
2021/06/30 07:54:13;;;;;;;8.40;2.25;;;;;;;27.51;45.59;100541.82;1816173;79;22389;-40
2021/06/30 07:56:39;;;;;;;2.58;1.80;;;;;;;27.56;44.52;100549.86;1789342;80;20935;-41
2021/06/30 07:59:08;;;;;;;12.40;2.10;;;;;;;27.56;45.50;100545.87;1789171;80;21152;-41
2021/06/30 08:01:34;;;;;;;7.65;2.08;;;;;;;27.51;45.69;100547.13;1789314;80;20936;-41
2021/06/30 08:04:01;;;;;;;3.67;1.42;;;;;;;27.72;45.54;100545.34;1789377;80;20924;-40
2021/06/30 08:06:28;;;;;;;4.70;1.90;;;;;;;27.79;42.67;100544.65;1789099;80;20939;-41
2021/06/30 08:08:54;;;;;;;4.40;1.50;;;;;;;27.78;43.89;100553.60;1789082;79;20920;-41
2021/06/30 08:11:23;;;;;;;4.87;1.72;;;;;;;27.81;43.69;100546.67;1758586;80;21019;-40
2021/06/30 08:13:52;;;;;;;4.78;1.82;;;;;;;27.91;41.17;100551.15;1789086;80;20997;-40
2021/06/30 08:16:19;;;;;;;2.70;1.40;;;;;;;27.81;42.55;100553.33;1788925;80;20961;-41
2021/06/30 08:18:48;;;;;;;3.87;1.22;;;;;;;27.82;42.24;100543.55;1789133;80;21022;-41
2021/06/30 08:21:16;;;;;;;2.30;1.20;;;;;;;27.96;41.64;100544.95;1789131;80;21457;-41
2021/06/30 08:23:44;;;;;;;1.60;1.52;;;;;;;28.15;40.55;100543.23;1772708;80;21141;-41
2021/06/30 08:26:12;;;;;;;2.30;1.10;;;;;;;28.18;39.05;100539.84;1760664;80;20928;-42
2021/06/30 08:28:40;;;;;;;52.60;3.67;;;;;;;28.22;38.43;100544.41;1760393;81;20892;-41
2021/06/30 08:31:06;;;;;;;9.08;1.77;;;;;;;28.21;40.97;100548.87;1760649;81;21386;-41
2021/06/30 08:33:34;;;;;;;26.27;3.00;;;;;;;28.31;39.88;100543.54;1760349;81;20931;-41
2021/06/30 08:36:00;;;;;;;12.15;2.00;;;;;;;28.39;40.01;100545.49;1760579;81;21071;-42
2021/06/30 08:38:26;;;;;;;30.12;2.83;;;;;;;28.57;40.16;100542.92;1760296;81;20964;-41
2021/06/30 08:40:56;;;;;;;5.58;2.10;;;;;;;28.61;38.86;100544.31;1760421;81;20896;-41
2021/06/30 08:43:24;;;;;;;6.85;1.77;;;;;;;28.58;38.84;100543.27;1760377;81;20908;-40
2021/06/30 08:45:51;;;;;;;29.12;2.72;;;;;;;28.39;39.13;100551.64;1760665;81;20920;-41
2021/06/30 08:48:18;;;;;;;5.35;1.32;;;;;;;28.36;38.76;100547.94;1760389;80;21208;-41
2021/06/30 08:50:45;;;;;;;17.75;1.72;;;;;;;28.46;38.13;100543.93;1730166;81;20936;-41
2021/06/30 08:53:13;;;;;;;26.93;2.80;;;;;;;28.37;36.69;100541.63;1755621;80;20841;-41
2021/06/30 08:55:44;;;;;;;3.52;1.85;;;;;;;28.29;37.66;100545.98;1749803;82;20944;-41
2021/06/30 08:58:12;;;;;;;17.10;2.17;;;;;;;28.22;39.34;100555.05;1749953;81;20876;-41
2021/06/30 09:00:41;;;;;;;4.83;1.62;;;;;;;28.19;38.84;100554.00;1749893;81;21785;-40
2021/06/30 09:03:15;;;;;;;21.93;2.72;;;;;;;28.33;41.89;100553.55;1750195;82;20944;-40
2021/06/30 09:06:00;;;;;;;28.07;2.72;;;;;;;28.61;37.70;100549.64;1748770;80;20893;-40
2021/06/30 09:08:06;;;;;;;24.95;2.37;;;;;;;28.65;38.00;100549.69;1743068;82;20929;-41
2021/06/30 09:10:38;;;;;;;39.42;3.35;;;;;;;28.81;39.64;100549.14;1749316;82;21482;-40
2021/06/30 09:13:09;;;;;;;32.42;3.55;;;;;;;28.87;36.18;100549.02;1749301;82;20964;-41
2021/06/30 09:15:37;;;;;;;22.45;2.77;;;;;;;28.81;37.68;100543.81;1721568;82;20893;-41
2021/06/30 09:18:24;;;;;;;18.37;2.30;;;;;;;28.74;40.16;100540.50;1722131;82;21526;-41
2021/06/30 09:20:50;;;;;;;8.93;1.98;;;;;;;28.84;37.23;100544.50;1749471;82;21450;-40
2021/06/30 09:23:16;;;;;;;11.22;1.60;;;;;;;28.89;37.27;100540.39;1749486;82;20925;-40
2021/06/30 09:25:44;;;;;;;5.95;1.30;;;;;;;29.06;39.00;100530.81;1749323;82;21086;-40
2021/06/30 09:28:17;;;;;;;9.18;1.32;;;;;;;29.35;37.95;100536.47;1746822;82;21062;-40
2021/06/30 09:30:57;;;;;;;4.28;1.12;;;;;;;29.62;38.41;100527.27;1749421;81;20901;-40
2021/06/30 09:33:23;;;;;;;1.70;1.07;;;;;;;29.94;38.51;100533.91;1748988;82;21422;-41
2021/06/30 09:36:02;;;;;;;5.05;1.45;;;;;;;30.35;37.41;100530.23;1749426;82;21462;-41
2021/06/30 09:38:32;;;;;;;6.05;1.40;;;;;;;30.36;35.58;100527.91;1749256;82;21794;-41
2021/06/30 09:40:59;;;;;;;3.25;1.20;;;;;;;30.08;35.47;100529.38;1749606;81;20991;-41
2021/06/30 09:43:32;;;;;;;4.70;1.15;;;;;;;29.87;35.36;100527.49;1749440;82;20944;-41
2021/06/30 09:46:05;;;;;;;8.08;1.27;;;;;;;29.79;35.98;100529.10;1749574;82;20972;-41
2021/06/30 09:48:35;;;;;;;2.87;1.25;;;;;;;29.75;35.43;100526.41;1746738;82;20980;-41
2021/06/30 09:51:03;;;;;;;5.70;1.20;;;;;;;29.67;35.90;100523.64;1749270;82;21157;-41
2021/06/30 09:53:40;;;;;;;1.57;1.22;;;;;;;29.49;37.52;100520.48;1749146;80;21007;-41
2021/06/30 09:56:34;;;;;;;16.85;1.42;;;;;;;29.37;37.37;100522.50;1749334;80;20970;-41
2021/06/30 09:59:17;;;;;;;18.40;2.20;;;;;;;29.39;37.35;100513.00;1721627;82;20941;-41
2021/06/30 10:01:46;;;;;;;13.30;2.30;;;;;;;29.42;36.50;100514.06;1749579;82;20956;-41
2021/06/30 10:04:34;;;;;;;28.05;3.02;;;;;;;29.28;38.34;100515.37;1748835;82;21877;-41
2021/06/30 10:07:11;;;;;;;17.70;2.00;;;;;;;29.43;36.40;100508.25;1749363;82;20968;-39
2021/06/30 10:09:42;;;;;;;15.05;2.22;;;;;;;29.47;35.28;100507.81;1749362;82;20928;-40
2021/06/30 10:12:11;;;;;;;15.45;1.82;;;;;;;29.44;34.78;100500.12;1719545;82;21474;-40
2021/06/30 10:14:41;;;;;;;46.15;3.67;;;;;;;29.32;35.73;100494.61;1749384;81;21481;-41
2021/06/30 10:17:08;;;;;;;18.42;2.72;;;;;;;29.23;37.27;100499.01;1721925;82;21070;-41
2021/06/30 10:19:37;;;;;;;15.58;1.82;;;;;;;29.30;35.94;100493.41;1749120;82;21523;-40
2021/06/30 10:22:05;;;;;;;41.63;3.40;;;;;;;29.35;36.70;100496.49;1749495;81;20972;-40
2021/06/30 10:24:32;;;;;;;91.53;5.62;;;;;;;29.44;37.29;100489.45;1749219;80;21668;-41
2021/06/30 10:26:59;;;;;;;37.90;3.15;;;;;;;29.64;36.60;100489.28;1749557;82;21415;-41
2021/06/30 10:29:31;;;;;;;110.85;6.95;;;;;;;29.75;34.72;100484.22;1749299;81;21870;-41
2021/06/30 10:32:05;;;;;;;81.17;6.95;;;;;;;29.83;34.74;100482.97;1749453;80;20956;-40
2021/06/30 10:34:43;;;;;;;27.22;3.20;;;;;;;30.09;36.11;100476.86;1749283;81;21335;-41
2021/06/30 10:37:30;;;;;;;30.52;3.33;;;;;;;30.35;35.20;100481.37;1749675;82;21015;-41
2021/06/30 10:40:12;;;;;;;95.97;6.53;;;;;;;30.36;34.59;100477.70;1749490;82;20967;-41
2021/06/30 10:42:47;;;;;;;116.62;6.45;;;;;;;30.27;37.91;100481.30;1698486;82;21122;-40
2021/06/30 10:45:21;;;;;;;107.22;6.05;;;;;;;30.42;35.09;100479.73;1749488;82;27935;-40
2021/06/30 10:47:57;;;;;;;26.80;3.20;;;;;;;30.49;34.33;100481.28;1749361;80;20893;-41
2021/06/30 10:50:47;;;;;;;70.42;5.15;;;;;;;30.47;35.54;100477.93;1749340;80;20896;-40
2021/06/30 10:53:26;;;;;;;42.15;3.15;;;;;;;30.46;34.91;100473.08;1749324;80;20888;-41
2021/06/30 10:55:58;;;;;;;42.83;3.05;;;;;;;30.50;33.72;100474.94;1749262;82;20924;-41
2021/06/30 10:58:27;;;;;;;17.45;2.67;;;;;;;30.49;34.94;100469.27;1749444;81;20908;-41
2021/06/30 11:01:04;;;;;;;37.83;3.58;;;;;;;30.58;33.76;100464.81;1749204;82;20968;-41
2021/06/30 11:03:47;;;;;;;62.48;4.78;;;;;;;30.67;34.72;100468.70;1749341;82;21023;-40
2021/06/30 11:06:25;;;;;;;16.73;2.33;;;;;;;30.77;34.33;100474.43;1722153;82;20940;-40
2021/06/30 11:09:02;;;;;;;27.50;3.92;;;;;;;30.81;32.37;100469.09;1749529;82;21149;-41
2021/06/30 11:11:35;;;;;;;3.42;1.60;;;;;;;30.68;34.23;100460.20;1723392;82;20956;-41
2021/06/30 11:14:14;;;;;;;45.33;3.65;;;;;;;30.65;33.31;100458.67;1749226;82;20956;-41
2021/06/30 11:16:53;;;;;;;7.80;2.40;;;;;;;30.59;33.66;100455.80;1749258;82;21023;-42
2021/06/30 11:19:27;;;;;;;3.02;1.50;;;;;;;30.58;33.87;100454.95;1749497;80;20936;-41
2021/06/30 11:22:05;;;;;;;31.75;3.20;;;;;;;30.57;33.88;100459.95;1749344;81;21074;-40
2021/06/30 11:27:24;;;;;;;51.65;4.78;;;;;;;30.36;34.05;100459.84;1722031;82;20936;-41
2021/06/30 11:29:55;;;;;;;20.12;2.60;;;;;;;30.56;34.06;100464.10;1749196;82;20936;-42